Time;durP1;ratioP1;P1;durP2;ratioP2;P2;SDS_P1;SDS_P2;PMS_P1;PMS_P2;Temp;Humidity;BMP_temperature;BMP_pressure;BME280_temperature;BME280_humidity;BME280_pressure;Samples;Min_cycle;Max_cycle;Signal;HPM_P1;HPM_P2
2022/02/03 00:08:07;;;;;;;0.45;0.30;;;10.70;61.40;;;;;;5054058;28;20028;-77
2022/02/03 00:26:53;;;;;;;0.20;0.20;;;10.80;61.10;;;;;;5072362;28;20253;-77
2022/02/03 00:30:06;;;;;;;0.10;0.10;;;10.70;61.40;;;;;;5054927;28;20040;-77
2022/02/03 00:32:13;;;;;;;0.20;0.20;;;10.70;61.20;;;;;;5064360;28;20025;-77
2022/02/03 00:34:53;;;;;;;0.80;0.20;;;10.70;61.20;;;;;;5072813;28;20017;-77
2022/02/03 00:37:43;;;;;;;0.17;0.17;;;10.60;61.20;;;;;;5054621;28;20498;-77
2022/02/03 00:48:32;;;;;;;2.58;0.30;;;10.60;60.70;;;;;;5072393;28;20036;-77
2022/02/03 00:51:00;;;;;;;0.45;0.20;;;10.80;60.10;;;;;;5072805;28;20020;-77
2022/02/03 00:53:29;;;;;;;0.15;0.15;;;10.80;60.10;;;;;;5072243;28;20505;-76
2022/02/03 00:56:12;;;;;;;0.20;0.20;;;10.80;60.10;;;;;;5072427;28;20036;-76
2022/02/03 00:58:50;;;;;;;0.20;0.20;;;10.70;60.00;;;;;;5054259;28;20093;-76
2022/02/03 01:01:19;;;;;;;0.20;0.20;;;10.70;60.30;;;;;;5068888;28;20024;-77
2022/02/03 01:03:51;;;;;;;0.20;0.20;;;10.80;60.10;;;;;;5072076;28;20111;-77
2022/02/03 01:06:19;;;;;;;0.20;0.20;;;10.80;59.80;;;;;;5072084;28;20023;-77
2022/02/03 01:08:47;;;;;;;0.38;0.38;;;10.70;60.00;;;;;;5071867;28;20027;-77
2022/02/03 01:11:22;;;;;;;0.13;0.13;;;10.80;60.00;;;;;;5071952;28;20044;-77
2022/02/03 01:13:56;;;;;;;0.20;0.20;;;10.70;59.90;;;;;;5071809;28;20029;-77
2022/02/03 01:43:58;;;;;;;0.43;0.43;;;10.20;65.00;;;;;;5064517;28;20055;-77
2022/02/03 01:46:52;;;;;;;1.30;0.93;;;10.00;65.70;;;;;;5071672;28;20020;-77
2022/02/03 01:51:37;;;;;;;0.52;0.52;;;9.90;64.90;;;;;;5071414;28;20164;-77
2022/02/03 01:52:14;;;;;;;1.20;0.90;;;9.80;66.10;;;;;;5071614;28;20115;-77
2022/02/03 01:54:46;;;;;;;0.75;0.60;;;9.70;67.00;;;;;;5070126;28;20028;-77
2022/02/03 01:57:12;;;;;;;;;;;9.60;67.60;;;;;;5071990;28;20027;-77
2022/02/03 01:59:40;;;;;;;2.47;0.45;;;9.50;68.30;;;;;;5070075;28;19954;-77
2022/02/03 02:02:07;;;;;;;0.68;0.68;;;9.40;68.90;;;;;;5071554;28;20109;-77
2022/02/03 02:05:03;;;;;;;4.15;2.95;;;9.20;69.80;;;;;;5071531;28;20025;-77
2022/02/03 02:07:53;;;;;;;6.30;4.15;;;9.10;72.60;;;;;;5071216;28;20027;-77
2022/02/03 02:11:23;;;;;;;14.48;7.03;;;8.90;74.50;;;;;;5071359;28;20081;-77
2022/02/03 02:19:18;;;;;;;18.23;9.98;;;8.20;84.30;;;;;;5071221;28;20068;-77
2022/02/03 02:39:05;;;;;;;20.17;11.15;;;7.30;91.80;;;;;;5071056;28;20036;-77
2022/02/03 02:44:41;;;;;;;16.90;9.38;;;7.10;91.80;;;;;;5074661;28;20124;-77
2022/02/03 02:47:27;;;;;;;18.13;10.55;;;7.00;91.80;;;;;;5074779;28;20027;-77
2022/02/03 02:50:19;;;;;;;17.58;10.13;;;6.80;92.50;;;;;;5056463;28;20059;-77
2022/02/03 02:52:56;;;;;;;21.88;11.15;;;6.80;93.20;;;;;;5056715;28;20028;-76
2022/02/03 02:55:49;;;;;;;19.63;10.82;;;6.70;93.30;;;;;;5074465;28;20043;-77
2022/02/03 03:32:04;;;;;;;14.10;9.13;;;5.80;96.60;;;;;;5054118;28;20040;-77
2022/02/03 03:40:18;;;;;;;13.85;7.38;;;5.80;97.30;;;;;;5023136;28;20033;-77
2022/02/03 03:43:06;;;;;;;11.40;7.35;;;6.00;97.50;;;;;;5044576;28;20052;-77
2022/02/03 03:45:35;;;;;;;11.65;6.88;;;6.00;97.10;;;;;;5040013;28;20063;-77
2022/02/03 03:48:05;;;;;;;12.52;7.80;;;6.00;96.90;;;;;;5053400;28;20017;-77
2022/02/03 03:50:37;;;;;;;8.60;6.22;;;5.90;96.90;;;;;;5053461;28;20017;-76
2022/02/03 03:53:23;;;;;;;15.48;7.93;;;5.70;97.00;;;;;;5053309;28;20071;-77
2022/02/03 03:56:05;;;;;;;13.55;7.15;;;5.70;97.30;;;;;;5053280;28;20025;-77
2022/02/03 05:01:29;;;;;;;3.22;1.98;;;6.10;93.90;;;;;;5072195;28;20082;-78
2022/02/03 05:10:50;;;;;;;2.67;1.77;;;6.20;93.80;;;;;;5072150;28;20029;-78
2022/02/03 05:23:11;;;;;;;3.58;1.10;;;6.20;93.30;;;;;;5071731;28;20066;-77
2022/02/03 05:51:13;;;;;;;1.13;1.02;;;5.80;94.00;;;;;;5061377;28;20090;-77
2022/02/03 06:02:44;;;;;;;1.08;1.05;;;6.00;93.30;;;;;;5061069;28;20040;-77
2022/02/03 06:07:46;;;;;;;1.42;0.98;;;6.10;92.90;;;;;;5070342;28;20478;-77
2022/02/03 06:12:59;;;;;;;0.80;0.80;;;6.10;92.90;;;;;;5071441;28;20029;-77
2022/02/03 06:29:08;;;;;;;3.70;2.22;;;6.30;92.10;;;;;;5055374;28;20472;-78
2022/02/03 06:31:38;;;;;;;1.55;1.45;;;6.20;93.10;;;;;;5055290;28;20033;-77
2022/02/03 06:34:05;;;;;;;1.17;1.10;;;6.30;92.30;;;;;;5055221;28;20036;-77
2022/02/03 06:36:32;;;;;;;2.25;1.67;;;6.30;92.10;;;;;;5035220;28;20017;-77
2022/02/03 06:39:01;;;;;;;3.45;1.40;;;6.30;92.00;;;;;;5055737;28;20062;-77
2022/02/03 06:41:27;;;;;;;2.28;1.75;;;6.40;92.10;;;;;;5072875;28;20286;-77
2022/02/03 06:43:52;;;;;;;2.10;1.90;;;6.30;92.80;;;;;;5067505;28;20045;-78
2022/02/03 06:46:18;;;;;;;2.60;2.35;;;6.20;93.10;;;;;;5075331;28;20103;-78
2022/02/03 06:48:52;;;;;;;14.30;7.13;;;6.10;93.20;;;;;;5072841;28;20032;-78
2022/02/03 06:51:29;;;;;;;16.70;9.45;;;6.00;93.40;;;;;;5074671;28;20070;-78
2022/02/03 06:54:01;;;;;;;6.75;4.30;;;5.80;94.00;;;;;;5074971;28;20031;-77
2022/02/03 06:56:38;;;;;;;6.65;4.15;;;5.60;94.50;;;;;;5074720;28;20020;-77
2022/02/03 06:59:08;;;;;;;5.72;4.03;;;5.50;94.80;;;;;;5074320;28;20031;-78
2022/02/03 07:01:41;;;;;;;4.57;4.18;;;5.50;95.30;;;;;;5074568;28;20017;-77
2022/02/03 07:04:17;;;;;;;3.40;3.10;;;5.50;95.30;;;;;;5074998;28;20031;-77
2022/02/03 07:06:43;;;;;;;3.03;2.60;;;5.50;95.30;;;;;;5075301;28;20025;-77
2022/02/03 07:09:10;;;;;;;3.50;2.13;;;5.50;94.90;;;;;;5075819;28;20021;-77
2022/02/03 07:11:38;;;;;;;3.38;2.25;;;5.40;94.80;;;;;;5065278;28;20497;-78
2022/02/03 07:14:05;;;;;;;1.60;1.50;;;5.50;94.70;;;;;;5055673;28;20502;-77
2022/02/03 07:16:34;;;;;;;6.35;1.73;;;5.70;94.30;;;;;;5055477;28;20082;-78
2022/02/03 07:19:00;;;;;;;2.13;1.95;;;5.80;93.90;;;;;;5055022;28;20021;-77
2022/02/03 07:21:26;;;;;;;3.88;2.10;;;5.90;93.90;;;;;;5055657;28;20496;-77
2022/02/03 07:23:52;;;;;;;2.40;2.20;;;6.00;93.80;;;;;;5055558;28;20029;-77
2022/02/03 07:26:17;;;;;;;4.60;2.33;;;5.90;94.50;;;;;;5055498;28;20032;-78
2022/02/03 07:28:46;;;;;;;6.45;2.90;;;5.90;94.40;;;;;;5054593;28;20556;-77
2022/02/03 07:31:12;;;;;;;5.22;2.53;;;5.80;95.40;;;;;;5055455;28;20453;-77
2022/02/03 07:33:37;;;;;;;6.93;3.35;;;5.80;95.70;;;;;;5055347;28;20120;-77
2022/02/03 07:36:04;;;;;;;3.38;3.03;;;5.80;96.40;;;;;;5053995;28;20090;-77
2022/02/03 07:38:30;;;;;;;8.25;3.28;;;5.80;96.70;;;;;;5053959;28;20056;-77
2022/02/03 07:40:56;;;;;;;2.88;2.50;;;5.80;96.90;;;;;;5068766;28;20071;-77
2022/02/03 07:43:22;;;;;;;3.42;2.90;;;5.90;96.70;;;;;;5073570;28;20049;-77
2022/02/03 07:45:48;;;;;;;4.60;3.17;;;5.90;96.30;;;;;;5067133;28;20044;-77
2022/02/03 07:48:17;;;;;;;4.78;3.53;;;6.00;96.40;;;;;;5073924;28;20031;-77
2022/02/03 07:50:42;;;;;;;7.10;3.92;;;6.00;97.50;;;;;;5066443;28;20021;-77
2022/02/03 07:53:08;;;;;;;14.07;5.07;;;6.10;97.50;;;;;;5062722;28;20430;-77
2022/02/03 07:55:35;;;;;;;10.35;5.38;;;6.10;97.10;;;;;;5054970;28;20040;-77
2022/02/03 07:58:02;;;;;;;11.70;5.35;;;6.10;96.70;;;;;;5048764;28;20055;-77
2022/02/03 08:00:28;;;;;;;12.68;5.15;;;6.10;97.30;;;;;;5054731;28;20025;-78
2022/02/03 08:02:56;;;;;;;5.25;3.75;;;6.20;97.50;;;;;;5054788;28;20032;-78
2022/02/03 08:05:23;;;;;;;11.32;5.07;;;6.20;97.40;;;;;;5053684;28;20283;-78
2022/02/03 08:08:45;;;;;;;6.85;4.13;;;6.20;97.10;;;;;;5053101;28;20063;-78
2022/02/03 08:10:51;;;;;;;6.45;3.05;;;6.20;96.20;;;;;;5043347;28;20025;-74
2022/02/03 08:13:28;;;;;;;4.57;2.47;;;6.30;96.20;;;;;;5049341;28;20035;-74
2022/02/03 08:16:02;;;;;;;3.80;3.15;;;6.40;96.10;;;;;;5045895;28;20372;-74
2022/02/03 08:18:30;;;;;;;3.28;2.78;;;6.40;95.80;;;;;;5051641;28;20039;-74
2022/02/03 08:21:02;;;;;;;3.75;2.63;;;6.50;96.00;;;;;;5052988;28;20028;-74
2022/02/03 08:26:25;;;;;;;3.38;2.55;;;6.60;95.80;;;;;;5052916;28;20079;-74
2022/02/03 08:29:28;;;;;;;3.70;2.22;;;6.70;95.90;;;;;;5052467;28;20017;-74
2022/02/03 08:32:04;;;;;;;5.28;2.35;;;6.80;95.60;;;;;;5045677;28;20171;-74
2022/02/03 08:34:36;;;;;;;3.30;2.28;;;6.80;94.90;;;;;;5052575;28;20111;-74
2022/02/03 08:37:04;;;;;;;;;;;6.90;94.70;;;;;;5052974;28;20021;-74
2022/02/03 08:39:36;;;;;;;2.90;2.63;;;7.00;94.70;;;;;;5051908;28;19912;-74
2022/02/03 08:42:05;;;;;;;10.57;3.15;;;7.00;94.70;;;;;;5067062;28;20044;-74
2022/02/03 08:44:31;;;;;;;4.68;3.45;;;7.10;94.50;;;;;;5052499;28;20071;-74
2022/02/03 08:46:56;;;;;;;8.18;3.63;;;7.10;94.10;;;;;;5033457;28;20025;-74
2022/02/03 08:49:23;;;;;;;7.10;3.40;;;7.10;94.00;;;;;;5027060;28;20543;-74
2022/02/03 08:51:50;;;;;;;6.00;3.85;;;7.10;94.30;;;;;;5010405;28;20546;-74
2022/02/03 08:54:16;;;;;;;8.13;4.05;;;7.10;95.10;;;;;;5028290;28;20017;-73
2022/02/03 08:56:57;;;;;;;13.52;4.38;;;7.10;94.60;;;;;;5027659;28;20036;-73
2022/02/03 09:58:41;;;;;;;11.45;6.20;;;9.10;93.10;;;;;;5021295;28;20033;-77
2022/02/03 10:01:16;;;;;;;11.90;6.43;;;9.10;93.90;;;;;;5052113;28;20116;-74
2022/02/03 10:06:24;;;;;;;18.60;7.25;;;9.10;93.40;;;;;;5067922;28;20119;-74
2022/02/03 10:08:53;;;;;;;19.33;7.05;;;9.20;93.50;;;;;;5067305;28;20099;-73
2022/02/03 10:11:20;;;;;;;14.63;6.93;;;9.40;92.60;;;;;;5067277;28;20417;-74
2022/02/03 10:13:48;;;;;;;15.35;7.07;;;9.50;92.50;;;;;;5066782;28;20028;-73
2022/02/03 10:16:15;;;;;;;14.43;7.15;;;9.60;93.00;;;;;;5067383;28;20017;-74
2022/02/03 10:18:42;;;;;;;24.65;7.85;;;9.70;94.10;;;;;;5066835;28;20047;-73
2022/02/03 10:21:11;;;;;;;18.15;7.88;;;9.80;94.00;;;;;;5062868;28;20021;-74
2022/02/03 10:24:07;;;;;;;28.55;8.15;;;9.80;93.90;;;;;;5057081;28;20200;-73
2022/02/03 10:26:38;;;;;;;14.98;7.50;;;9.90;93.90;;;;;;5042857;28;20371;-73
2022/02/03 10:29:19;;;;;;;12.83;7.90;;;9.90;93.90;;;;;;5066347;28;20097;-73
2022/02/03 10:31:45;;;;;;;15.43;6.20;;;9.80;94.10;;;;;;5066470;28;20258;-73
2022/02/03 10:34:16;;;;;;;13.40;8.30;;;9.80;94.30;;;;;;5066723;28;20390;-75
2022/02/03 10:36:54;;;;;;;20.23;8.55;;;9.80;94.30;;;;;;5061341;28;20028;-75
2022/02/03 11:03:28;;;;;;;16.90;9.77;;;10.60;97.10;;;;;;5069180;28;20041;-74
2022/02/03 11:09:20;;;;;;;16.05;8.55;;;10.60;97.10;;;;;;5073499;28;20118;-74
2022/02/03 11:11:38;;;;;;;17.23;9.20;;;10.70;97.40;;;;;;5064675;28;20033;-74
2022/02/03 11:14:05;;;;;;;20.27;8.68;;;10.80;97.30;;;;;;5073196;28;20021;-74
2022/02/03 11:16:36;;;;;;;15.30;8.95;;;10.80;97.50;;;;;;5071969;28;20024;-74
2022/02/03 11:19:04;;;;;;;18.60;9.30;;;10.80;97.60;;;;;;5070067;28;20445;-74
2022/02/03 11:21:35;;;;;;;15.73;8.68;;;10.90;96.90;;;;;;5060262;28;20039;-73
2022/02/03 11:24:20;;;;;;;20.52;8.88;;;10.90;96.40;;;;;;5073257;28;20107;-74
2022/02/03 11:27:38;;;;;;;15.93;8.93;;;11.00;96.70;;;;;;5073642;28;20024;-73
2022/02/03 11:30:15;;;;;;;16.85;9.27;;;11.00;96.60;;;;;;5058649;28;20017;-73
2022/02/03 11:33:07;;;;;;;14.48;8.18;;;11.00;96.10;;;;;;5073467;28;20024;-73
2022/02/03 11:53:14;;;;;;;15.90;7.25;;;11.30;94.70;;;;;;5073940;28;20035;-77
2022/02/03 11:56:00;;;;;;;14.38;7.20;;;11.30;94.20;;;;;;5071555;28;20044;-77
2022/02/03 12:01:40;;;;;;;16.45;7.07;;;11.40;94.30;;;;;;5059616;28;20032;-72
2022/02/03 12:04:48;;;;;;;12.55;7.72;;;11.50;94.40;;;;;;5072221;28;20115;-73
2022/02/03 12:07:31;;;;;;;17.85;7.13;;;11.70;94.80;;;;;;5069748;28;20048;-72
2022/02/03 12:13:48;;;;;;;16.40;7.22;;;11.80;93.50;;;;;;5073407;28;20039;-73
2022/02/03 12:21:47;;;;;;;10.55;7.13;;;11.80;94.40;;;;;;5073528;28;20029;-72
2022/02/03 12:24:52;;;;;;;14.82;7.35;;;11.90;94.80;;;;;;5073458;28;20024;-73
2022/02/03 12:27:56;;;;;;;6.93;5.20;;;11.90;95.50;;;;;;5073456;28;20016;-72
2022/02/03 12:30:29;;;;;;;10.35;5.43;;;12.00;95.60;;;;;;5073664;28;20104;-73
2022/02/03 12:38:34;;;;;;;6.93;4.55;;;12.20;95.40;;;;;;5073308;28;20047;-73
2022/02/03 12:41:13;;;;;;;8.98;4.03;;;12.30;96.00;;;;;;5073172;28;20028;-73
2022/02/03 12:43:57;;;;;;;10.85;3.88;;;12.50;96.30;;;;;;5063541;28;20044;-73
2022/02/03 12:46:24;;;;;;;8.18;4.45;;;12.50;95.80;;;;;;5071480;28;20493;-72
2022/02/03 12:48:58;;;;;;;8.68;4.35;;;12.60;95.90;;;;;;5072567;28;20533;-72
2022/02/03 12:51:25;;;;;;;5.78;4.65;;;12.60;95.60;;;;;;5072521;28;20021;-73
2022/02/03 12:53:52;;;;;;;4.65;3.42;;;12.60;95.70;;;;;;5072591;28;20394;-73
2022/02/03 12:56:23;;;;;;;6.28;3.38;;;12.70;95.20;;;;;;5070994;28;20029;-73
2022/02/03 12:58:56;;;;;;;6.05;3.50;;;12.70;95.50;;;;;;5072241;28;20490;-73
2022/02/03 13:01:30;;;;;;;10.18;3.40;;;12.70;95.40;;;;;;5070967;28;20031;-73
2022/02/03 13:03:56;;;;;;;4.20;3.58;;;12.60;95.50;;;;;;5072105;28;20056;-73
2022/02/03 13:06:25;;;;;;;8.40;3.70;;;12.60;95.80;;;;;;5070931;28;20055;-73
2022/02/03 13:08:55;;;;;;;6.13;4.70;;;12.60;96.00;;;;;;5072068;28;20025;-73
2022/02/03 13:16:31;;;;;;;8.20;5.28;;;12.60;95.60;;;;;;5068783;28;20082;-72
2022/02/03 13:19:04;;;;;;;8.40;5.18;;;12.70;95.40;;;;;;5071965;28;20035;-73
2022/02/03 13:26:56;;;;;;;10.07;4.93;;;12.60;96.10;;;;;;5071513;28;20112;-73
2022/02/03 13:29:48;;;;;;;6.45;4.57;;;12.50;95.90;;;;;;5072715;28;20020;-77
2022/02/03 13:32:21;;;;;;;6.93;4.82;;;12.50;96.10;;;;;;5072344;28;20471;-76
2022/02/03 13:35:12;;;;;;;7.95;4.90;;;12.50;96.30;;;;;;5072224;28;20040;-76
2022/02/03 13:37:43;;;;;;;10.30;5.45;;;12.50;96.30;;;;;;5072361;28;20114;-77
2022/02/03 13:40:12;;;;;;;9.20;5.28;;;12.50;96.00;;;;;;5071730;28;20028;-77
2022/02/03 13:42:43;;;;;;;6.90;5.28;;;12.50;96.30;;;;;;5071462;28;20039;-77
2022/02/03 13:45:13;;;;;;;11.93;5.32;;;12.60;96.20;;;;;;5071606;28;20027;-77
2022/02/03 13:47:39;;;;;;;9.68;5.63;;;12.50;96.00;;;;;;5071481;28;20024;-77
2022/02/03 13:50:28;;;;;;;11.65;5.45;;;12.50;96.40;;;;;;5071820;28;20405;-76
2022/02/03 14:21:01;;;;;;;15.65;5.75;;;12.30;98.20;;;;;;5011809;28;20487;-76
2022/02/03 14:28:58;;;;;;;14.75;6.45;;;12.20;98.00;;;;;;5051559;28;20032;-77
2022/02/03 14:31:24;;;;;;;14.27;5.75;;;12.20;98.20;;;;;;5048057;28;20394;-77
2022/02/03 14:33:49;;;;;;;10.10;5.95;;;12.10;98.30;;;;;;5051180;28;20021;-76
2022/02/03 14:36:19;;;;;;;10.60;5.78;;;12.10;98.60;;;;;;5051282;28;20032;-76
2022/02/03 14:38:56;;;;;;;10.20;6.65;;;12.10;98.70;;;;;;5053838;28;20028;-77
2022/02/03 14:43:47;;;;;;;8.57;6.70;;;12.00;99.20;;;;;;5074565;28;20483;-76
2022/02/03 14:46:15;;;;;;;12.60;6.78;;;12.00;99.30;;;;;;5057062;28;20020;-77
2022/02/03 14:48:43;;;;;;;11.02;6.00;;;11.90;99.50;;;;;;5056714;28;20474;-77
2022/02/03 14:51:14;;;;;;;19.23;6.22;;;11.90;99.50;;;;;;5074478;28;20097;-77
2022/02/03 14:59:03;;;;;;;11.45;6.68;;;11.80;99.90;;;;;;5074771;28;20398;-76
2022/02/03 15:01:32;;;;;;;12.52;5.45;;;11.70;99.90;;;;;;5074569;28;20088;-77
2022/02/03 15:04:05;;;;;;;16.05;7.15;;;11.70;99.90;;;;;;5074438;28;20111;-77
2022/02/03 15:06:52;;;;;;;8.45;5.95;;;11.60;99.90;;;;;;5056401;28;20082;-77
2022/02/03 15:09:33;;;;;;;8.63;5.75;;;11.60;99.90;;;;;;5073952;28;20017;-76
2022/02/03 15:12:21;;;;;;;14.13;6.50;;;11.60;99.90;;;;;;5047823;28;20110;-76
2022/02/03 15:14:47;;;;;;;9.32;6.32;;;11.50;99.90;;;;;;5047008;28;20052;-76
2022/02/03 15:17:12;;;;;;;11.05;6.70;;;11.50;99.90;;;;;;5054183;28;20501;-76
2022/02/03 15:19:38;;;;;;;11.68;6.88;;;11.40;99.90;;;;;;5054319;28;20017;-76
2022/02/03 15:22:04;;;;;;;8.93;6.22;;;11.40;99.90;;;;;;5054383;28;20386;-76
2022/02/03 15:24:29;;;;;;;8.27;6.40;;;11.30;99.90;;;;;;5055487;28;20102;-76
2022/02/03 15:26:59;;;;;;;11.32;6.15;;;11.30;99.90;;;;;;5053030;28;20386;-76
2022/02/03 15:29:26;;;;;;;11.95;6.30;;;11.30;99.90;;;;;;5052631;28;20025;-77
2022/02/03 15:31:52;;;;;;;11.63;7.22;;;11.20;99.90;;;;;;5052895;28;20021;-76
2022/02/03 15:34:21;;;;;;;10.18;7.25;;;11.20;99.90;;;;;;5052805;28;20479;-77
2022/02/03 15:36:51;;;;;;;17.35;7.28;;;11.20;99.90;;;;;;5052778;28;20071;-76
2022/02/03 15:39:24;;;;;;;8.32;6.35;;;11.20;99.90;;;;;;5053628;28;20028;-76
2022/02/03 15:41:53;;;;;;;12.93;6.88;;;11.20;99.90;;;;;;5055758;28;20056;-77
2022/02/03 15:44:18;;;;;;;19.02;7.50;;;11.10;99.90;;;;;;5073703;28;20025;-77
2022/02/03 15:46:59;;;;;;;9.50;6.80;;;11.10;99.90;;;;;;5073692;28;20422;-76
2022/02/03 16:03:31;;;;;;;15.85;7.72;;;10.80;99.90;;;;;;5073255;28;20096;-77
2022/02/03 16:19:21;;;;;;;18.42;9.35;;;10.30;99.90;;;;;;5073322;28;20115;-77
2022/02/03 16:21:54;;;;;;;12.43;7.68;;;10.30;99.90;;;;;;5073499;28;20455;-76
2022/02/03 16:41:09;;;;;;;28.10;10.00;;;10.00;99.90;;;;;;5064968;28;20087;-77
2022/02/03 16:53:47;;;;;;;19.15;8.95;;;9.60;99.90;;;;;;5051260;28;20479;-77
2022/02/03 16:56:13;;;;;;;24.13;10.98;;;9.40;99.90;;;;;;5051070;28;20032;-73
2022/02/03 16:58:42;;;;;;;30.10;14.77;;;9.30;99.90;;;;;;5050231;28;20031;-72
2022/02/03 17:01:08;;;;;;;30.40;15.07;;;9.10;99.90;;;;;;5049613;28;20021;-72
2022/02/03 17:03:33;;;;;;;30.80;13.60;;;9.10;99.90;;;;;;5050018;28;20043;-72
2022/02/03 17:05:59;;;;;;;20.35;11.32;;;9.00;99.90;;;;;;5049867;28;20871;-73
2022/02/03 17:08:25;;;;;;;19.05;9.45;;;9.00;99.90;;;;;;5047421;28;20032;-72
2022/02/03 17:10:51;;;;;;;27.70;13.23;;;9.00;99.90;;;;;;5060907;28;20428;-72
2022/02/03 17:13:17;;;;;;;29.33;13.68;;;8.90;99.90;;;;;;5070000;28;20024;-72
2022/02/03 17:15:43;;;;;;;23.73;12.48;;;8.90;99.90;;;;;;5069812;28;20020;-73
2022/02/03 17:18:09;;;;;;;24.35;11.27;;;8.80;99.90;;;;;;5064268;28;20031;-73
2022/02/03 17:20:38;;;;;;;20.75;10.77;;;8.80;99.90;;;;;;5057130;28;20581;-73
2022/02/03 17:23:07;;;;;;;30.27;12.93;;;8.80;99.90;;;;;;5052298;28;20079;-73
2022/02/03 17:25:49;;;;;;;19.85;11.32;;;8.60;99.90;;;;;;5058216;28;20024;-73
2022/02/03 17:28:29;;;;;;;20.60;11.35;;;8.50;99.90;;;;;;5063526;28;20049;-74
2022/02/03 17:31:08;;;;;;;19.17;10.07;;;8.50;99.90;;;;;;5051707;28;20029;-73
2022/02/03 18:36:09;;;;;;;27.02;12.00;;;7.60;99.90;;;;;;5040061;28;20091;-73
2022/02/03 18:52:51;;;;;;;22.42;10.35;;;7.60;99.90;;;;;;5052429;28;20087;-74
2022/02/03 19:24:26;;;;;;;16.65;9.38;;;7.60;99.90;;;;;;5051338;28;20033;-74
2022/02/03 20:05:07;;;;;;;33.47;10.95;;;7.50;99.90;;;;;;5069955;28;20045;-74
2022/02/03 20:10:09;;;;;;;17.48;11.05;;;7.50;99.90;;;;;;5064834;28;20407;-74
2022/02/03 20:12:35;;;;;;;21.40;11.15;;;7.50;99.90;;;;;;5049138;28;20036;-74
2022/02/03 20:15:01;;;;;;;27.70;13.40;;;7.50;99.90;;;;;;5049271;28;20025;-74
2022/02/03 20:17:28;;;;;;;119.28;56.33;;;7.50;99.90;;;;;;5048553;28;20104;-73
2022/02/03 20:19:54;;;;;;;115.95;55.78;;;7.50;99.90;;;;;;5049554;28;20048;-73
2022/02/03 20:22:21;;;;;;;146.43;73.70;;;7.60;99.90;;;;;;5050809;28;20017;-74
2022/02/03 20:24:47;;;;;;;51.05;30.55;;;7.70;99.90;;;;;;5050659;28;20049;-74
2022/02/03 20:27:15;;;;;;;34.13;18.15;;;7.70;99.90;;;;;;5051653;28;20066;-74
2022/02/03 20:29:41;;;;;;;22.63;14.70;;;7.70;99.90;;;;;;5050400;28;20071;-74
2022/02/03 20:32:07;;;;;;;21.73;13.32;;;7.60;99.90;;;;;;5032565;28;20025;-74
2022/02/03 20:34:32;;;;;;;22.05;11.82;;;7.60;99.90;;;;;;5050819;28;20025;-73
2022/02/03 20:36:58;;;;;;;15.07;10.27;;;7.60;99.90;;;;;;5048071;28;20062;-72
2022/02/03 20:39:24;;;;;;;18.75;10.68;;;7.60;99.90;;;;;;5050756;28;20029;-72
2022/02/03 20:41:50;;;;;;;15.80;10.23;;;7.60;99.90;;;;;;5072496;28;21344;-72
2022/02/03 20:44:15;;;;;;;15.55;8.82;;;7.60;99.90;;;;;;5089749;28;20036;-72
2022/02/03 20:46:42;;;;;;;14.93;9.82;;;7.60;99.90;;;;;;5090116;28;20023;-72
2022/02/03 20:49:08;;;;;;;25.48;10.75;;;7.60;99.90;;;;;;5089489;28;20024;-72
2022/02/03 20:51:33;;;;;;;14.45;9.57;;;7.50;99.90;;;;;;5071760;28;20031;-72
2022/02/03 20:53:59;;;;;;;15.90;10.07;;;7.50;99.90;;;;;;5063507;28;20032;-72
2022/02/03 20:56:25;;;;;;;21.15;10.13;;;7.50;99.90;;;;;;5065177;28;20037;-72
2022/02/03 20:58:51;;;;;;;18.02;9.75;;;7.50;99.90;;;;;;5057831;28;20398;-72
2022/02/03 21:01:28;;;;;;;16.83;9.80;;;7.50;99.90;;;;;;5056515;28;20031;-72
2022/02/03 21:04:01;;;;;;;19.95;10.45;;;7.50;99.90;;;;;;5062619;28;20025;-72
2022/02/03 21:06:27;;;;;;;15.82;9.75;;;7.50;99.90;;;;;;5069639;28;20044;-73
2022/02/03 21:08:53;;;;;;;22.98;10.57;;;7.50;99.90;;;;;;5051531;28;20048;-72
2022/02/03 21:11:19;;;;;;;17.98;9.98;;;7.50;99.90;;;;;;5066472;28;20598;-73
2022/02/03 21:13:44;;;;;;;18.85;10.25;;;7.50;99.90;;;;;;5050610;28;20050;-73
2022/02/03 21:16:13;;;;;;;19.85;10.77;;;7.50;99.90;;;;;;5067825;28;20535;-73
2022/02/03 21:18:41;;;;;;;20.42;10.48;;;7.50;99.90;;;;;;5065017;28;20186;-72
2022/02/03 21:21:08;;;;;;;13.93;10.43;;;7.50;99.90;;;;;;5068007;28;20024;-74
2022/02/03 21:23:34;;;;;;;886.00;491.83;;;7.50;99.90;;;;;;5069034;28;20074;-74
2022/02/03 21:26:03;;;;;;;117.03;76.60;;;7.50;99.90;;;;;;5066451;28;20508;-73
2022/02/03 21:28:34;;;;;;;268.63;132.98;;;7.50;99.90;;;;;;5049276;28;20020;-72
2022/02/03 21:31:03;;;;;;;50.97;34.60;;;7.50;99.90;;;;;;5066188;28;20121;-72
2022/02/03 21:33:35;;;;;;;39.67;25.90;;;7.40;99.90;;;;;;5050278;28;20104;-72
2022/02/03 21:36:09;;;;;;;29.70;20.20;;;7.30;99.90;;;;;;5068604;28;20731;-73
2022/02/03 21:38:39;;;;;;;29.55;17.10;;;7.30;99.90;;;;;;5051306;28;20025;-74
2022/02/03 21:41:05;;;;;;;24.17;15.18;;;7.30;99.90;;;;;;5069707;28;20043;-74
2022/02/03 21:43:32;;;;;;;23.40;14.82;;;7.30;99.90;;;;;;5058562;28;20055;-74
2022/02/03 21:45:58;;;;;;;19.42;12.18;;;7.20;99.90;;;;;;5069048;28;20093;-74
2022/02/03 21:48:24;;;;;;;20.00;10.88;;;7.20;99.90;;;;;;5069033;28;20063;-74
2022/02/03 21:50:50;;;;;;;19.80;11.48;;;7.20;99.90;;;;;;5067425;28;20050;-74
2022/02/03 21:53:20;;;;;;;18.33;10.48;;;7.20;99.90;;;;;;5069529;28;20028;-74
2022/02/03 21:55:47;;;;;;;17.10;10.95;;;7.20;99.90;;;;;;5067370;28;20024;-74
2022/02/03 21:58:13;;;;;;;17.02;10.68;;;7.20;99.90;;;;;;5068327;28;20178;-74
2022/02/03 22:00:39;;;;;;;18.50;10.45;;;7.20;99.90;;;;;;5067944;28;20032;-74
2022/02/03 22:03:05;;;;;;;20.30;12.32;;;7.20;99.90;;;;;;5068936;28;20082;-74
2022/02/03 22:05:33;;;;;;;22.25;11.52;;;7.10;99.90;;;;;;5068913;28;20076;-74
2022/02/03 22:08:00;;;;;;;20.90;11.25;;;7.00;99.90;;;;;;5057860;28;20048;-74
2022/02/03 22:10:26;;;;;;;17.23;11.27;;;7.00;99.90;;;;;;5057829;28;20031;-74
2022/02/03 22:12:52;;;;;;;20.95;11.52;;;6.90;99.90;;;;;;5069108;28;20035;-74
2022/02/03 22:15:19;;;;;;;20.60;11.38;;;6.90;99.90;;;;;;5059140;28;20528;-74
2022/02/03 22:17:46;;;;;;;17.90;10.85;;;6.80;99.90;;;;;;5055484;28;20029;-74
2022/02/03 22:20:54;;;;;;;22.20;11.27;;;6.80;99.90;;;;;;5068356;28;20052;-74
2022/02/03 22:44:52;;;;;;;18.48;10.13;;;6.70;99.90;;;;;;5062616;28;20047;-76
2022/02/03 22:49:43;;;;;;;19.00;10.32;;;6.60;99.90;;;;;;5061461;28;20021;-76
2022/02/03 22:52:10;;;;;;;15.55;10.55;;;6.60;99.90;;;;;;5062379;28;20028;-76
2022/02/03 22:54:36;;;;;;;110.15;52.67;;;6.60;99.90;;;;;;5051949;28;20052;-74
2022/02/03 22:57:02;;;;;;;249.27;108.18;;;6.60;99.90;;;;;;5052096;28;20052;-75
2022/02/03 23:01:56;;;;;;;30.98;17.98;;;6.70;99.90;;;;;;5056044;28;20618;-76
2022/02/03 23:04:22;;;;;;;21.92;13.82;;;6.70;99.90;;;;;;5037912;28;20074;-76
2022/02/03 23:06:54;;;;;;;21.10;12.50;;;6.60;99.90;;;;;;5067246;28;20029;-77
2022/02/03 23:12:17;;;;;;;18.67;10.25;;;6.60;99.90;;;;;;5072832;28;20020;-76
2022/02/03 23:17:33;;;;;;;16.50;9.90;;;6.60;99.90;;;;;;5072648;28;20028;-77
2022/02/03 23:22:27;;;;;;;15.70;10.00;;;6.60;99.90;;;;;;5072257;28;20032;-76
2022/02/03 23:24:54;;;;;;;16.80;9.73;;;6.50;99.90;;;;;;5072277;28;20097;-76
2022/02/03 23:30:06;;;;;;;19.00;10.63;;;6.50;99.90;;;;;;5058903;28;20040;-77
2022/02/03 23:32:32;;;;;;;16.92;10.82;;;6.50;99.90;;;;;;5060737;28;20517;-77
2022/02/03 23:35:23;;;;;;;19.27;10.45;;;6.50;99.90;;;;;;5073102;28;20108;-73
2022/02/03 23:37:50;;;;;;;15.40;10.27;;;6.40;99.90;;;;;;5071993;28;20028;-73
